createdAt,value
2018-02-02T00:00:36.262Z,99324.27
2018-02-02T00:01:38.739Z,99319.89
2018-02-02T00:02:41.195Z,99325.20
2018-02-02T00:03:43.716Z,99319.23
2018-02-02T00:04:46.199Z,99319.00
2018-02-02T00:05:48.673Z,99318.58
2018-02-02T00:06:51.135Z,99317.73
2018-02-02T00:07:53.625Z,99318.05
2018-02-02T00:08:56.100Z,99318.05
2018-02-02T00:09:58.575Z,99317.66
2018-02-02T00:11:01.027Z,99314.39
2018-02-02T00:12:03.492Z,99317.20
2018-02-02T00:13:05.964Z,99311.95
2018-02-02T00:14:08.423Z,99309.70
2018-02-02T00:15:10.910Z,99314.10
2018-02-02T00:16:13.373Z,99310.77
2018-02-02T00:17:15.848Z,99309.47
2018-02-02T00:18:18.325Z,99309.30
2018-02-02T00:19:20.796Z,99312.25
2018-02-02T00:20:23.289Z,99311.48
2018-02-02T00:21:25.762Z,99309.91
2018-02-02T00:22:28.219Z,99307.75
2018-02-02T00:23:30.690Z,99309.47
2018-02-02T00:24:33.153Z,99301.37
2018-02-02T00:25:35.644Z,99299.94
2018-02-02T00:26:38.102Z,99299.70
2018-02-02T00:27:40.562Z,99303.22
2018-02-02T00:28:43.018Z,99303.20
2018-02-02T00:29:45.495Z,99303.17
2018-02-02T00:30:47.988Z,99303.93
2018-02-02T00:31:50.447Z,99308.19
2018-02-02T00:32:52.925Z,99305.38
2018-02-02T00:33:55.382Z,99306.34
2018-02-02T00:34:57.863Z,99307.70
2018-02-02T00:36:00.357Z,99305.94
2018-02-02T00:37:02.818Z,99305.80
2018-02-02T00:38:05.289Z,99309.03
2018-02-02T00:39:07.769Z,99302.19
2018-02-02T00:40:10.252Z,99299.89
2018-02-02T00:41:12.747Z,99301.16
2018-02-02T00:42:15.205Z,99301.20
2018-02-02T00:43:17.683Z,99297.12
2018-02-02T00:44:20.152Z,99300.48
2018-02-02T00:45:22.625Z,99295.75
2018-02-02T00:46:25.115Z,99296.13
2018-02-02T00:47:27.620Z,99291.78
2018-02-02T00:48:30.075Z,99300.84
2018-02-02T00:49:32.526Z,99296.30
2018-02-02T00:50:40.594Z,99294.69
2018-02-02T00:51:48.764Z,99293.66
2018-02-02T00:52:51.240Z,99293.20
2018-02-02T00:53:53.695Z,99294.55
2018-02-02T00:54:56.153Z,99289.81
2018-02-02T00:55:58.610Z,99288.78
2018-02-02T00:57:01.105Z,99291.31
2018-02-02T00:58:03.580Z,99292.22
2018-02-02T00:59:06.038Z,99290.23
2018-02-02T01:00:08.517Z,99295.55
2018-02-02T01:01:10.983Z,99298.52
2018-02-02T01:02:13.462Z,99296.65
2018-02-02T01:03:15.937Z,99294.77
2018-02-02T01:04:18.398Z,99293.66
2018-02-02T01:05:20.859Z,99294.94
2018-02-02T01:06:23.314Z,99295.55
2018-02-02T01:07:25.794Z,99294.79
2018-02-02T01:08:28.246Z,99298.40
2018-02-02T01:09:30.719Z,99297.83
2018-02-02T01:10:33.193Z,99302.55
2018-02-02T01:11:35.654Z,99294.44
2018-02-02T01:12:38.144Z,99295.23
2018-02-02T01:13:40.607Z,99295.77
2018-02-02T01:14:43.079Z,99295.36
2018-02-02T01:15:45.539Z,99297.70
2018-02-02T01:16:47.995Z,99297.69
2018-02-02T01:17:50.489Z,99295.88
2018-02-02T01:18:52.956Z,99293.08
2018-02-02T01:19:55.429Z,99294.60
2018-02-02T01:20:57.886Z,99293.22
2018-02-02T01:22:00.369Z,99285.29
2018-02-02T01:23:02.865Z,99286.05
2018-02-02T01:24:05.386Z,99288.01
2018-02-02T01:25:07.829Z,99287.82
2018-02-02T01:26:10.287Z,99280.34
2018-02-02T01:27:12.742Z,99291.72
2018-02-02T01:28:15.232Z,99288.45
2018-02-02T01:29:17.687Z,99290.45
2018-02-02T01:30:20.162Z,99289.55
2018-02-02T01:31:22.618Z,99284.83
2018-02-02T01:32:25.091Z,99278.34
2018-02-02T01:33:27.581Z,99283.86
2018-02-02T01:34:30.039Z,99280.34
2018-02-02T01:35:32.499Z,99282.52
2018-02-02T01:36:34.957Z,99278.19
2018-02-02T01:37:37.418Z,99288.06
2018-02-02T01:38:39.913Z,99280.55
2018-02-02T01:39:42.397Z,99285.08
2018-02-02T01:40:44.858Z,99285.63
2018-02-02T01:41:47.333Z,99282.63
2018-02-02T01:42:49.803Z,99281.42
2018-02-02T01:43:52.300Z,99281.17
2018-02-02T01:44:54.768Z,99283.30
2018-02-02T01:45:57.241Z,99283.66
2018-02-02T01:46:59.695Z,99281.45
2018-02-02T01:48:14.164Z,99281.19
2018-02-02T01:49:16.639Z,99283.34
2018-02-02T01:50:19.098Z,99283.34
2018-02-02T01:51:21.556Z,99282.22
2018-02-02T01:52:24.019Z,99279.12
2018-02-02T01:53:26.474Z,99274.05
2018-02-02T01:54:28.969Z,99277.67
2018-02-02T01:55:31.426Z,99275.75
2018-02-02T01:56:33.903Z,99272.62
2018-02-02T01:57:36.392Z,99265.14
2018-02-02T01:58:38.860Z,99269.50
2018-02-02T01:59:41.335Z,99264.56
2018-02-02T02:00:43.795Z,99259.05
2018-02-02T02:01:46.251Z,99264.97
2018-02-02T02:02:48.727Z,99263.20
2018-02-02T02:03:51.196Z,99265.94
2018-02-02T02:04:53.675Z,99266.11
2018-02-02T02:05:56.149Z,99260.56
2018-02-02T02:06:58.602Z,99262.70
2018-02-02T02:08:01.054Z,99259.13
2018-02-02T02:09:03.533Z,99264.00
2018-02-02T02:10:06.018Z,99263.00
2018-02-02T02:11:08.475Z,99261.39
2018-02-02T02:12:10.947Z,99256.22
2018-02-02T02:13:13.410Z,99261.33
2018-02-02T02:14:15.875Z,99265.27
2018-02-02T02:15:18.392Z,99260.12
2018-02-02T02:16:20.868Z,99262.13
2018-02-02T02:17:23.339Z,99264.55
2018-02-02T02:18:25.798Z,99256.37
2018-02-02T02:19:28.290Z,99250.88
2018-02-02T02:20:30.784Z,99253.70
2018-02-02T02:21:33.246Z,99248.98
2018-02-02T02:22:35.717Z,99246.67
2018-02-02T02:23:38.171Z,99249.08
2018-02-02T02:24:40.667Z,99240.99
2018-02-02T02:25:43.150Z,99245.17
2018-02-02T02:26:45.610Z,99231.94
2018-02-02T02:27:48.062Z,99238.23
2018-02-02T02:28:50.534Z,99238.04
2018-02-02T02:29:52.991Z,99238.80
2018-02-02T02:30:55.534Z,99242.13
2018-02-02T02:31:57.991Z,99240.10
2018-02-02T02:33:00.461Z,99236.32
2018-02-02T02:34:02.937Z,99233.14
2018-02-02T02:35:05.397Z,99234.88
2018-02-02T02:36:07.870Z,99238.80
2018-02-02T02:37:10.325Z,99232.42
2018-02-02T02:38:12.813Z,99237.53
2018-02-02T02:39:15.281Z,99233.57
2018-02-02T02:40:17.769Z,99229.59
2018-02-02T02:41:20.269Z,99233.41
2018-02-02T02:42:22.734Z,99230.45
2018-02-02T02:43:25.186Z,99230.47
2018-02-02T02:44:27.661Z,99227.78
2018-02-02T02:45:30.133Z,99227.25
2018-02-02T02:46:32.619Z,99220.75
2018-02-02T02:47:35.082Z,99221.42
2018-02-02T02:48:37.541Z,99218.30
2018-02-02T02:49:39.995Z,99220.28
2018-02-02T02:50:42.480Z,99213.38
2018-02-02T02:51:44.977Z,99208.03
2018-02-02T02:52:47.443Z,99211.61
2018-02-02T02:53:49.898Z,99210.41
2018-02-02T02:54:52.373Z,99200.89
2018-02-02T02:55:54.827Z,99206.40
2018-02-02T02:56:57.321Z,99204.57
2018-02-02T02:57:59.794Z,99199.41
2018-02-02T02:59:02.277Z,99203.52
2018-02-02T03:00:04.768Z,99200.14
2018-02-02T03:01:07.244Z,99205.20
2018-02-02T03:02:09.727Z,99202.22
2018-02-02T03:03:12.187Z,99207.91
2018-02-02T03:04:14.710Z,99205.30
2018-02-02T03:05:17.184Z,99207.27
2018-02-02T03:06:19.654Z,99211.64
2018-02-02T03:07:22.134Z,99211.68
2018-02-02T03:08:24.605Z,99210.33
2018-02-02T03:09:27.058Z,99211.98
2018-02-02T03:10:29.510Z,99205.72
2018-02-02T03:11:31.980Z,99210.06
2018-02-02T03:12:34.454Z,99211.88
2018-02-02T03:13:36.924Z,99206.81
2018-02-02T03:14:39.397Z,99211.95
2018-02-02T03:15:41.858Z,99216.31
2018-02-02T03:16:44.346Z,99213.36
2018-02-02T03:17:46.852Z,99212.56
2018-02-02T03:18:49.356Z,99210.78
2018-02-02T03:19:51.823Z,99211.35
2018-02-02T03:20:54.278Z,99213.91
2018-02-02T03:21:56.749Z,99215.83
2018-02-02T03:22:59.248Z,99217.98
2018-02-02T03:24:01.710Z,99221.31
2018-02-02T03:25:04.167Z,99218.33
2018-02-02T03:26:06.636Z,99219.27
2018-02-02T03:27:09.108Z,99221.43
2018-02-02T03:28:11.590Z,99217.02
2018-02-02T03:29:14.070Z,99215.99
2018-02-02T03:30:16.530Z,99220.52
2018-02-02T03:31:19.004Z,99218.53
2018-02-02T03:32:21.466Z,99228.02
2018-02-02T03:33:23.952Z,99221.55
2018-02-02T03:34:26.419Z,99217.64
2018-02-02T03:35:28.880Z,99217.32
2018-02-02T03:36:31.335Z,99224.30
2018-02-02T03:37:33.795Z,99216.07
2018-02-02T03:38:36.275Z,99215.89
2018-02-02T03:39:38.744Z,99222.23
2018-02-02T03:40:41.198Z,99217.10
2018-02-02T03:41:43.654Z,99220.67
2018-02-02T03:42:46.129Z,99210.20
2018-02-02T03:43:48.620Z,99215.93
2018-02-02T03:44:51.135Z,99213.92
2018-02-02T03:45:53.589Z,99216.47
2018-02-02T03:46:56.057Z,99223.14
2018-02-02T03:47:58.529Z,99221.74
2018-02-02T03:49:01.024Z,99220.16
2018-02-02T03:50:03.493Z,99217.75
2018-02-02T03:51:05.970Z,99215.16
2018-02-02T03:52:08.431Z,99221.45
2018-02-02T03:53:10.905Z,99219.61
2018-02-02T03:54:13.390Z,99215.83
2018-02-02T03:55:15.844Z,99216.20
2018-02-02T03:56:18.489Z,99219.53
2018-02-02T03:57:20.948Z,99218.38
2018-02-02T03:58:23.404Z,99209.94
2018-02-02T03:59:25.885Z,99214.37
2018-02-02T04:00:28.361Z,99217.75
2018-02-02T04:01:30.820Z,99213.24
2018-02-02T04:02:33.274Z,99207.55
2018-02-02T04:03:35.731Z,99209.91
2018-02-02T04:04:38.206Z,99209.32
2018-02-02T04:05:40.677Z,99209.37
2018-02-02T04:06:43.130Z,99209.17
2018-02-02T04:07:45.583Z,99210.37
2018-02-02T04:08:48.061Z,99208.19
2018-02-02T04:09:50.544Z,99215.72
2018-02-02T04:10:52.998Z,99213.77
2018-02-02T04:11:55.450Z,99213.38
2018-02-02T04:12:57.902Z,99212.02
2018-02-02T04:14:00.363Z,99212.00
2018-02-02T04:15:02.857Z,99209.63
2018-02-02T04:16:05.311Z,99216.10
2018-02-02T04:17:07.783Z,99203.27
2018-02-02T04:18:10.258Z,99210.70
2018-02-02T04:19:12.729Z,99210.88
2018-02-02T04:20:15.216Z,99216.56
2018-02-02T04:21:17.705Z,99226.99
2018-02-02T04:22:20.176Z,99217.89
2018-02-02T04:23:22.635Z,99215.55
2018-02-02T04:24:25.108Z,99211.45
2018-02-02T04:25:27.613Z,99213.31
2018-02-02T04:26:30.089Z,99212.75
2018-02-02T04:27:32.548Z,99205.86
2018-02-02T04:28:35.028Z,99210.43
2018-02-02T04:29:37.505Z,99208.28
2018-02-02T04:30:40.027Z,99212.03
2018-02-02T04:31:42.496Z,99210.45
2018-02-02T04:32:45.025Z,99213.42
2018-02-02T04:33:47.505Z,99212.23
2018-02-02T04:34:50.462Z,99215.59
2018-02-02T04:35:53.906Z,99214.00
2018-02-02T04:36:56.393Z,99215.77
2018-02-02T04:37:58.868Z,99216.95
2018-02-02T04:39:01.330Z,99215.93
2018-02-02T04:40:03.790Z,99206.63
2018-02-02T04:41:06.300Z,99213.07
2018-02-02T04:42:08.764Z,99216.20
2018-02-02T04:43:11.238Z,99215.97
2018-02-02T04:44:13.710Z,99215.35
2018-02-02T04:45:16.162Z,99218.88
2018-02-02T04:46:18.659Z,99215.65
2018-02-02T04:47:21.137Z,99222.35
2018-02-02T04:48:23.610Z,99224.11
2018-02-02T04:49:26.084Z,99229.05
2018-02-02T04:50:28.557Z,99227.69
2018-02-02T04:51:31.054Z,99227.38
2018-02-02T04:52:33.518Z,99224.87
2018-02-02T04:53:35.974Z,99226.28
2018-02-02T04:54:38.451Z,99225.36
2018-02-02T04:55:40.907Z,99223.82
2018-02-02T04:56:43.395Z,99223.06
2018-02-02T04:57:45.857Z,99220.28
2018-02-02T04:58:48.315Z,99222.66
2018-02-02T04:59:50.773Z,99222.47
2018-02-02T05:00:53.231Z,99224.06
2018-02-02T05:01:55.711Z,99222.28
2018-02-02T05:02:58.174Z,99221.28
2018-02-02T05:04:00.639Z,99215.91
2018-02-02T05:05:03.095Z,99215.89
2018-02-02T05:06:05.568Z,99218.01
2018-02-02T05:07:08.051Z,99223.71
2018-02-02T05:08:10.533Z,99214.21
2018-02-02T05:09:12.992Z,99218.11
2018-02-02T05:10:15.462Z,99217.49
2018-02-02T05:11:17.926Z,99220.40
2018-02-02T05:12:20.406Z,99220.38
2018-02-02T05:13:22.876Z,99217.83
2018-02-02T05:14:25.335Z,99217.49
2018-02-02T05:15:27.805Z,99220.52
2018-02-02T05:16:30.284Z,99218.58
2018-02-02T05:17:32.829Z,99215.12
2018-02-02T05:18:35.314Z,99213.36
2018-02-02T05:19:37.788Z,99218.34
2018-02-02T05:20:40.304Z,99223.48
2018-02-02T05:21:42.780Z,99213.63
2018-02-02T05:22:45.281Z,99218.75
2018-02-02T05:23:47.767Z,99221.50
2018-02-02T05:24:50.236Z,99222.09
2018-02-02T05:25:52.695Z,99219.31
2018-02-02T05:26:55.155Z,99211.59
2018-02-02T05:27:57.642Z,99218.48
2018-02-02T05:29:00.120Z,99214.70
2018-02-02T05:30:02.603Z,99229.25
2018-02-02T05:31:05.082Z,99221.53
2018-02-02T05:32:07.543Z,99219.53
2018-02-02T05:33:10.018Z,99216.94
2018-02-02T05:34:12.474Z,99228.56
2018-02-02T05:35:14.948Z,99221.22
2018-02-02T05:36:17.430Z,99224.52
2018-02-02T05:37:19.905Z,99224.28
2018-02-02T05:38:22.383Z,99224.27
2018-02-02T05:39:24.840Z,99226.63
2018-02-02T05:40:27.313Z,99221.91
2018-02-02T05:41:29.771Z,99230.31
2018-02-02T05:42:32.248Z,99227.20
2018-02-02T05:43:34.750Z,99220.55
2018-02-02T05:44:37.222Z,99217.61
2018-02-02T05:45:39.675Z,99216.10
2018-02-02T05:46:42.127Z,99219.27
2018-02-02T05:47:44.594Z,99217.70
2018-02-02T05:48:47.071Z,99212.80
2018-02-02T05:49:49.526Z,99210.22
2018-02-02T05:50:51.995Z,99220.08
2018-02-02T05:51:54.450Z,99212.56
2018-02-02T05:52:56.937Z,99214.91
2018-02-02T05:53:59.433Z,99210.75
2018-02-02T05:55:01.900Z,99215.81
2018-02-02T05:56:04.380Z,99216.58
2018-02-02T05:57:06.838Z,99218.13
2018-02-02T05:58:09.308Z,99220.88
2018-02-02T05:59:11.802Z,99214.33
2018-02-02T06:00:14.280Z,99213.69
2018-02-02T06:01:16.737Z,99212.45
2018-02-02T06:02:19.194Z,99208.31
2018-02-02T06:03:21.681Z,99211.68
2018-02-02T06:04:24.176Z,99212.11
2018-02-02T06:05:26.635Z,99208.64
2018-02-02T06:06:29.814Z,99206.33
2018-02-02T06:07:33.170Z,99208.38
2018-02-02T06:08:35.622Z,99203.49
2018-02-02T06:09:38.106Z,99205.68
2018-02-02T06:10:40.576Z,99200.19
2018-02-02T06:11:43.030Z,99202.96
2018-02-02T06:12:45.482Z,99206.52
2018-02-02T06:13:47.964Z,99201.98
2018-02-02T06:14:50.447Z,99210.66
2018-02-02T06:15:52.933Z,99210.64
2018-02-02T06:16:55.387Z,99204.91
2018-02-02T06:17:57.861Z,99206.86
2018-02-02T06:19:00.337Z,99207.62
2018-02-02T06:20:02.828Z,99205.81
2018-02-02T06:21:05.305Z,99212.47
2018-02-02T06:22:07.866Z,99212.62
2018-02-02T06:23:10.345Z,99212.20
2018-02-02T06:24:12.802Z,99210.40
2018-02-02T06:25:15.282Z,99214.13
2018-02-02T06:26:17.743Z,99212.74
2018-02-02T06:27:20.261Z,99213.54
2018-02-02T06:28:22.723Z,99216.92
2018-02-02T06:29:25.197Z,99206.31
2018-02-02T06:30:27.692Z,99212.53
2018-02-02T06:31:30.147Z,99214.38
2018-02-02T06:32:32.641Z,99217.16
2018-02-02T06:33:35.114Z,99219.99
2018-02-02T06:34:37.581Z,99220.59
2018-02-02T06:35:40.063Z,99220.01
2018-02-02T06:36:42.536Z,99218.23
2018-02-02T06:37:45.054Z,99223.97
2018-02-02T06:38:47.549Z,99213.29
2018-02-02T06:39:50.017Z,99218.36
2018-02-02T06:40:52.498Z,99215.18
2018-02-02T06:41:54.969Z,99217.13
2018-02-02T06:42:57.440Z,99213.75
2018-02-02T06:43:59.898Z,99217.09
2018-02-02T06:45:02.372Z,99214.69
2018-02-02T06:46:04.859Z,99211.48
2018-02-02T06:47:07.337Z,99221.13
2018-02-02T06:48:09.871Z,99215.75
2018-02-02T06:49:12.325Z,99219.48
2018-02-02T06:50:14.797Z,99222.05
2018-02-02T06:51:17.316Z,99224.63
2018-02-02T06:52:19.755Z,99222.07
2018-02-02T06:53:22.211Z,99224.28
2018-02-02T06:54:24.685Z,99214.52
2018-02-02T06:55:27.146Z,99221.69
2018-02-02T06:56:29.627Z,99216.78
2018-02-02T06:57:32.086Z,99216.44
2018-02-02T06:58:34.604Z,99215.27
2018-02-02T06:59:37.085Z,99215.29
2018-02-02T07:00:39.556Z,99215.87
2018-02-02T07:01:42.039Z,99215.48
2018-02-02T07:02:44.503Z,99213.69
2018-02-02T07:03:46.999Z,99213.67
2018-02-02T07:04:49.476Z,99221.17
2018-02-02T07:05:51.969Z,99223.28
2018-02-02T07:06:54.470Z,99219.50
2018-02-02T07:07:56.943Z,99223.82
2018-02-02T07:08:59.601Z,99214.70
2018-02-02T07:10:02.067Z,99221.74
2018-02-02T07:11:04.540Z,99223.30
2018-02-02T07:12:07.136Z,99225.02
2018-02-02T07:13:09.591Z,99225.80
2018-02-02T07:14:12.065Z,99227.16
2018-02-02T07:15:14.541Z,99233.47
2018-02-02T07:16:17.031Z,99230.52
2018-02-02T07:17:19.498Z,99227.98
2018-02-02T07:18:21.954Z,99230.63
2018-02-02T07:19:24.412Z,99227.54
2018-02-02T07:20:26.902Z,99228.19
2018-02-02T07:21:29.377Z,99225.65
2018-02-02T07:22:31.853Z,99223.93
2018-02-02T07:23:34.311Z,99221.97
2018-02-02T07:24:36.788Z,99224.55
2018-02-02T07:25:39.244Z,99223.56
2018-02-02T07:26:41.729Z,99222.97
2018-02-02T07:27:44.186Z,99220.78
2018-02-02T07:28:46.638Z,99220.58
2018-02-02T07:29:49.108Z,99218.36
2018-02-02T07:30:51.594Z,99216.96
2018-02-02T07:31:54.054Z,99219.90
2018-02-02T07:32:56.520Z,99218.11
2018-02-02T07:33:59.001Z,99215.33
2018-02-02T07:35:01.477Z,99219.06
2018-02-02T07:36:03.951Z,99221.95
2018-02-02T07:37:06.422Z,99231.19
2018-02-02T07:38:08.893Z,99222.27
2018-02-02T07:39:11.359Z,99219.12
2018-02-02T07:40:13.815Z,99229.58
2018-02-02T07:41:16.289Z,99221.34
2018-02-02T07:42:18.764Z,99221.42
2018-02-02T07:43:21.243Z,99222.28
2018-02-02T07:44:23.712Z,99219.34
2018-02-02T07:45:26.188Z,99217.64
2018-02-02T07:46:28.642Z,99219.08
2018-02-02T07:47:32.029Z,99214.97
2018-02-02T07:48:34.502Z,99218.32
2018-02-02T07:49:37.110Z,99218.33
2018-02-02T07:50:39.571Z,99221.29
2018-02-02T07:51:42.035Z,99222.27
2018-02-02T07:52:44.494Z,99220.88
2018-02-02T07:53:46.950Z,99219.49
2018-02-02T07:54:49.422Z,99222.78
2018-02-02T07:55:51.891Z,99223.55
2018-02-02T07:56:54.385Z,99221.52
2018-02-02T07:57:56.856Z,99220.31
2018-02-02T07:58:59.314Z,99215.34
2018-02-02T08:00:01.774Z,99218.08
2018-02-02T08:01:09.901Z,99223.97
2018-02-02T08:02:12.373Z,99228.06
2018-02-02T08:03:14.826Z,99233.19
2018-02-02T08:04:17.317Z,99225.95
2018-02-02T08:05:19.775Z,99228.95
2018-02-02T08:06:22.248Z,99229.86
2018-02-02T08:07:24.713Z,99220.61
2018-02-02T08:08:27.175Z,99228.63
2018-02-02T08:09:29.826Z,99220.05
2018-02-02T08:10:32.300Z,99232.97
2018-02-02T08:11:34.769Z,99228.05
2018-02-02T08:12:37.245Z,99233.52
2018-02-02T08:13:39.739Z,99230.56
2018-02-02T08:14:42.305Z,99237.61
2018-02-02T08:15:44.759Z,99237.80
2018-02-02T08:16:47.217Z,99234.38
2018-02-02T08:17:49.714Z,99232.98
2018-02-02T08:18:52.175Z,99233.78
2018-02-02T08:19:54.649Z,99241.44
2018-02-02T08:20:57.129Z,99240.05
2018-02-02T08:21:59.605Z,99234.92
2018-02-02T08:23:02.070Z,99242.61
2018-02-02T08:24:05.355Z,99231.87
2018-02-02T08:25:07.819Z,99233.70
2018-02-02T08:26:10.291Z,99237.98
2018-02-02T08:27:12.773Z,99242.95
2018-02-02T08:28:15.235Z,99237.63
2018-02-02T08:29:17.708Z,99243.12
2018-02-02T08:30:20.167Z,99238.02
2018-02-02T08:31:22.636Z,99249.05
2018-02-02T08:32:25.098Z,99243.11
2018-02-02T08:33:27.572Z,99249.95
2018-02-02T08:34:30.049Z,99247.66
2018-02-02T08:35:32.508Z,99245.20
2018-02-02T08:36:34.980Z,99246.81
2018-02-02T08:37:37.453Z,99245.56
2018-02-02T08:38:39.915Z,99244.16
2018-02-02T08:39:42.406Z,99243.66
2018-02-02T08:40:44.910Z,99239.45
2018-02-02T08:41:47.376Z,99238.55
2018-02-02T08:42:49.853Z,99242.88
2018-02-02T08:43:52.666Z,99241.83
2018-02-02T08:44:55.169Z,99233.69
2018-02-02T08:45:57.643Z,99237.10
2018-02-02T08:47:00.123Z,99241.81
2018-02-02T08:48:02.649Z,99238.35
2018-02-02T08:49:05.157Z,99241.23
2018-02-02T08:50:07.629Z,99234.86
2018-02-02T08:51:10.091Z,99241.06
2018-02-02T08:52:12.550Z,99246.73
2018-02-02T08:53:15.016Z,99235.13
2018-02-02T08:54:17.523Z,99242.56
2018-02-02T08:55:20.011Z,99241.17
2018-02-02T08:56:22.486Z,99240.58
2018-02-02T08:57:24.981Z,99240.77
2018-02-02T08:58:27.460Z,99242.64
2018-02-02T08:59:29.934Z,99243.53
2018-02-02T09:00:32.421Z,99238.84
2018-02-02T09:01:40.584Z,99245.10
2018-02-02T09:02:43.077Z,99245.16
2018-02-02T09:03:45.548Z,99244.15
2018-02-02T09:04:48.021Z,99248.59
2018-02-02T09:05:50.547Z,99242.20
2018-02-02T09:06:52.988Z,99247.56
2018-02-02T09:07:55.533Z,99241.73
2018-02-02T09:08:58.397Z,99237.91
2018-02-02T09:10:00.900Z,99244.75
2018-02-02T09:11:03.397Z,99243.77
2018-02-02T09:12:05.881Z,99246.56
2018-02-02T09:13:08.392Z,99239.64
2018-02-02T09:14:10.864Z,99249.39
2018-02-02T09:15:13.356Z,99244.18
2018-02-02T09:16:15.861Z,99251.49
2018-02-02T09:17:18.341Z,99245.56
2018-02-02T09:18:20.859Z,99250.58
2018-02-02T09:19:23.388Z,99255.31
2018-02-02T09:20:25.881Z,99256.34
2018-02-02T09:21:28.386Z,99256.61
2018-02-02T09:22:30.885Z,99252.58
2018-02-02T09:23:34.244Z,99265.32
2018-02-02T09:24:36.703Z,99256.91
2018-02-02T09:25:39.181Z,99258.51
2018-02-02T09:26:41.657Z,99256.73
2018-02-02T09:27:43.575Z,99255.19
2018-02-02T09:28:46.039Z,99263.08
2018-02-02T09:29:48.499Z,99258.73
2018-02-02T09:30:51.005Z,99255.72
2018-02-02T09:31:53.495Z,99256.39
2018-02-02T09:32:55.975Z,99261.25
2018-02-02T09:33:58.478Z,99260.28
2018-02-02T09:35:00.974Z,99259.76
2018-02-02T09:36:03.449Z,99266.14
2018-02-02T09:37:05.929Z,99259.33
2018-02-02T09:38:08.402Z,99257.62
2018-02-02T09:39:10.899Z,99258.91
2018-02-02T09:40:13.379Z,99265.81
2018-02-02T09:41:15.857Z,99262.80
2018-02-02T09:42:18.329Z,99256.48
2018-02-02T09:43:20.790Z,99259.19
2018-02-02T09:44:23.258Z,99262.61
2018-02-02T09:45:25.733Z,99271.87
2018-02-02T09:46:28.233Z,99263.91
2018-02-02T09:47:30.715Z,99262.48
2018-02-02T09:48:33.170Z,99258.38
2018-02-02T09:49:35.640Z,99261.42
2018-02-02T09:50:38.103Z,99261.89
2018-02-02T09:51:40.582Z,99268.03
2018-02-02T09:52:43.053Z,99268.34
2018-02-02T09:53:45.512Z,99266.72
2018-02-02T09:54:47.989Z,99266.01
2018-02-02T09:55:50.478Z,99267.08
2018-02-02T09:56:52.963Z,99268.64
2018-02-02T09:57:55.429Z,99264.35
2018-02-02T09:58:57.930Z,99264.56
2018-02-02T10:00:00.416Z,99265.91
2018-02-02T10:01:02.925Z,99264.72
2018-02-02T10:02:05.387Z,99266.86
2018-02-02T10:03:07.846Z,99267.27
2018-02-02T10:04:10.457Z,99266.84
2018-02-02T10:05:12.895Z,99266.01
2018-02-02T10:06:15.437Z,99271.30
2018-02-02T10:07:17.899Z,99272.47
2018-02-02T10:08:20.495Z,99266.66
2018-02-02T10:09:22.973Z,99266.63
2018-02-02T10:10:25.463Z,99265.80
2018-02-02T10:11:27.939Z,99272.28
2018-02-02T10:12:30.408Z,99266.74
2018-02-02T10:13:32.905Z,99263.92
2018-02-02T10:14:35.367Z,99270.17
2018-02-02T10:15:37.836Z,99263.98
2018-02-02T10:16:40.296Z,99263.92
2018-02-02T10:17:42.771Z,99271.36
2018-02-02T10:18:45.231Z,99274.44
2018-02-02T10:19:47.691Z,99268.28
2018-02-02T10:20:50.150Z,99272.14
2018-02-02T10:21:52.633Z,99276.60
2018-02-02T10:22:55.092Z,99276.57
2018-02-02T10:23:57.558Z,99268.86
2018-02-02T10:25:00.034Z,99278.00
2018-02-02T10:26:02.511Z,99276.34
2018-02-02T10:27:04.970Z,99279.06
2018-02-02T10:28:07.440Z,99277.25
2018-02-02T10:29:09.895Z,99280.95
2018-02-02T10:30:12.381Z,99275.98
2018-02-02T10:31:14.848Z,99280.66
2018-02-02T10:32:17.353Z,99282.19
2018-02-02T10:33:20.239Z,99279.61
2018-02-02T10:34:22.772Z,99282.36
2018-02-02T10:35:25.235Z,99283.56
2018-02-02T10:36:27.713Z,99288.92
2018-02-02T10:37:30.279Z,99274.86
2018-02-02T10:38:32.753Z,99286.54
2018-02-02T10:39:35.220Z,99280.59
2018-02-02T10:40:37.684Z,99290.61
2018-02-02T10:41:40.149Z,99284.80
2018-02-02T10:42:42.603Z,99288.30
2018-02-02T10:43:45.222Z,99289.77
2018-02-02T10:44:47.704Z,99288.66
2018-02-02T10:45:50.172Z,99283.44
2018-02-02T10:46:52.626Z,99280.09
2018-02-02T10:47:55.097Z,99283.65
2018-02-02T10:48:57.576Z,99283.83
2018-02-02T10:50:00.039Z,99280.67
2018-02-02T10:51:02.514Z,99287.32
2018-02-02T10:52:05.000Z,99282.79
2018-02-02T10:53:07.520Z,99286.31
2018-02-02T10:54:09.994Z,99287.05
2018-02-02T10:55:12.453Z,99283.24
2018-02-02T10:56:14.910Z,99285.57
2018-02-02T10:57:17.382Z,99281.98
2018-02-02T10:58:19.853Z,99285.44
2018-02-02T10:59:22.356Z,99285.77
2018-02-02T11:00:24.814Z,99288.69
2018-02-02T11:01:32.777Z,99286.88
2018-02-02T11:02:40.935Z,99288.98
2018-02-02T11:05:14.503Z,99287.66
2018-02-02T11:06:16.969Z,99292.15
2018-02-02T11:07:19.445Z,99291.50
2018-02-02T11:08:21.902Z,99295.20
2018-02-02T11:09:24.380Z,99290.61
2018-02-02T11:10:26.869Z,99288.00
2018-02-02T11:11:29.326Z,99297.36
2018-02-02T11:12:31.806Z,99295.62
2018-02-02T11:13:34.258Z,99293.26
2018-02-02T11:14:36.714Z,99302.59
2018-02-02T11:15:39.191Z,99296.03
2018-02-02T11:16:41.661Z,99293.17
2018-02-02T11:17:44.135Z,99295.81
2018-02-02T11:18:46.607Z,99293.01
2018-02-02T11:19:49.059Z,99290.63
2018-02-02T11:20:51.522Z,99296.73
2018-02-02T11:21:54.043Z,99291.91
2018-02-02T11:22:56.517Z,99295.38
2018-02-02T11:23:58.989Z,99291.36
2018-02-02T11:25:01.452Z,99288.23
2018-02-02T11:26:03.906Z,99288.08
2018-02-02T11:27:06.370Z,99292.48
2018-02-02T11:28:08.888Z,99288.99
2018-02-02T11:29:11.320Z,99287.00
2018-02-02T11:30:13.793Z,99288.17
2018-02-02T11:31:16.252Z,99278.30
2018-02-02T11:32:18.706Z,99286.80
2018-02-02T11:33:21.191Z,99289.12
2018-02-02T11:34:23.661Z,99289.27
2018-02-02T11:35:26.122Z,99290.84
2018-02-02T11:36:28.578Z,99280.66
2018-02-02T11:37:31.110Z,99285.44
2018-02-02T11:38:33.546Z,99290.40
2018-02-02T11:39:35.999Z,99289.88
2018-02-02T11:40:38.468Z,99283.31
2018-02-02T11:41:40.927Z,99288.86
2018-02-02T11:42:43.382Z,99281.19
2018-02-02T11:43:45.853Z,99286.16
2018-02-02T11:44:48.306Z,99282.47
2018-02-02T11:45:50.777Z,99286.66
2018-02-02T11:46:53.239Z,99291.66
2018-02-02T11:47:55.708Z,99290.72
2018-02-02T11:48:58.166Z,99291.73
2018-02-02T11:50:00.626Z,99289.72
2018-02-02T11:51:03.079Z,99290.48
2018-02-02T11:52:05.536Z,99293.16
2018-02-02T11:53:08.008Z,99284.77
2018-02-02T11:54:10.464Z,99290.27
2018-02-02T11:55:12.997Z,99286.20
2018-02-02T11:56:15.481Z,99280.22
2018-02-02T11:57:17.951Z,99284.30
2018-02-02T11:58:20.410Z,99289.58
2018-02-02T11:59:22.881Z,99280.02
2018-02-02T12:00:25.353Z,99280.95
2018-02-02T12:01:27.825Z,99284.05
2018-02-02T12:02:30.279Z,99285.36
2018-02-02T12:03:32.753Z,99279.55
2018-02-02T12:04:35.213Z,99284.78
2018-02-02T12:05:37.678Z,99288.85
2018-02-02T12:06:40.138Z,99294.30
2018-02-02T12:07:42.617Z,99293.02
2018-02-02T12:08:45.128Z,99292.00
2018-02-02T12:09:47.589Z,99292.44
2018-02-02T12:10:50.056Z,99291.52
2018-02-02T12:11:52.528Z,99296.94
2018-02-02T12:12:55.005Z,99292.74
2018-02-02T12:13:57.471Z,99291.67
2018-02-02T12:14:59.934Z,99295.16
2018-02-02T12:16:02.409Z,99294.84